createdAt,value
2024-04-01T00:04:02.738Z,11.89
2024-04-01T00:08:10.622Z,11.77
2024-04-01T00:12:18.736Z,11.72
2024-04-01T00:16:26.189Z,11.72
2024-04-01T00:20:33.519Z,11.71
2024-04-01T00:24:41.366Z,11.68
2024-04-01T00:28:48.680Z,11.64
2024-04-01T00:32:56.008Z,11.56
2024-04-01T00:37:03.842Z,11.50
2024-04-01T00:41:11.628Z,11.46
2024-04-01T00:45:19.142Z,11.42
2024-04-01T00:49:26.159Z,11.42
2024-04-01T00:53:35.428Z,11.46
2024-04-01T00:57:43.174Z,11.51
2024-04-01T01:01:51.207Z,11.54
2024-04-01T01:05:58.674Z,11.54
2024-04-01T01:10:07.200Z,11.52
2024-04-01T01:14:16.001Z,11.45
2024-04-01T01:18:23.884Z,11.32
2024-04-01T01:22:38.022Z,11.26
2024-04-01T01:26:46.742Z,11.21
2024-04-01T01:30:54.194Z,11.18
2024-04-01T01:35:04.905Z,11.10
2024-04-01T01:39:13.993Z,11.02
2024-04-01T01:43:21.669Z,10.95
2024-04-01T01:47:29.153Z,10.86
2024-04-01T01:51:36.900Z,10.77
2024-04-01T01:55:44.622Z,10.73
2024-04-01T01:59:52.261Z,10.72
2024-04-01T02:04:00.703Z,10.70
2024-04-01T02:08:08.723Z,10.61
2024-04-01T02:12:16.629Z,10.47
2024-04-01T02:16:23.959Z,10.36
2024-04-01T02:20:32.083Z,10.29
2024-04-01T02:24:39.277Z,10.24
2024-04-01T02:28:46.689Z,10.17
2024-04-01T02:32:54.272Z,10.13
2024-04-01T02:37:01.994Z,10.14
2024-04-01T02:41:09.282Z,10.21
2024-04-01T02:45:17.723Z,10.32
2024-04-01T02:49:25.558Z,10.45
2024-04-01T02:53:33.557Z,10.55
2024-04-01T02:57:41.176Z,10.65
2024-04-01T03:01:48.568Z,10.80
2024-04-01T03:05:55.971Z,10.99
2024-04-01T03:10:03.723Z,11.15
2024-04-01T03:14:11.747Z,11.27
2024-04-01T03:18:19.162Z,11.36
2024-04-01T03:22:27.341Z,11.40
2024-04-01T03:26:34.680Z,11.39
2024-04-01T03:30:42.660Z,11.33
2024-04-01T03:34:53.276Z,11.31
2024-04-01T03:39:00.404Z,11.32
2024-04-01T03:43:08.307Z,11.35
2024-04-01T03:47:15.900Z,11.32
2024-04-01T03:51:24.911Z,11.24
2024-04-01T03:55:32.334Z,11.19
2024-04-01T03:59:40.648Z,11.14
2024-04-01T04:03:48.329Z,11.14
2024-04-01T04:07:56.413Z,11.21
2024-04-01T04:12:05.108Z,11.29
2024-04-01T04:16:14.035Z,11.41
2024-04-01T04:20:22.014Z,11.49
2024-04-01T04:24:29.379Z,11.52
2024-04-01T04:28:36.930Z,11.51
2024-04-01T04:32:45.716Z,11.46
2024-04-01T04:36:53.296Z,11.41
2024-04-01T04:45:33.117Z,11.29
2024-04-01T04:49:42.875Z,11.30
2024-04-01T04:53:50.143Z,11.34
2024-04-01T04:57:57.375Z,11.38
2024-04-01T05:02:07.833Z,11.37
2024-04-01T05:06:15.465Z,11.32
2024-04-01T05:10:23.657Z,11.26
2024-04-01T05:14:31.459Z,11.19
2024-04-01T05:18:40.074Z,11.14
2024-04-01T05:22:47.531Z,11.15
2024-04-01T05:26:54.904Z,11.16
2024-04-01T05:31:02.783Z,11.17
2024-04-01T05:35:12.091Z,11.17
2024-04-01T05:39:21.372Z,11.19
2024-04-01T05:43:29.666Z,11.23
2024-04-01T05:47:37.671Z,11.29
2024-04-01T05:51:44.943Z,11.40
2024-04-01T05:55:52.682Z,11.61
2024-04-01T06:00:00.396Z,11.79
2024-04-01T06:04:08.717Z,11.88
2024-04-01T06:08:17.320Z,11.90
2024-04-01T06:12:24.995Z,11.93
2024-04-01T06:16:33.079Z,11.94
2024-04-01T06:20:41.249Z,11.98
2024-04-01T06:24:51.778Z,12.00
2024-04-01T06:28:58.897Z,12.04
2024-04-01T06:33:08.467Z,12.10
2024-04-01T06:37:16.516Z,12.19
2024-04-01T06:41:24.191Z,12.29
2024-04-01T06:45:32.097Z,12.39
2024-04-01T06:49:39.583Z,12.49
2024-04-01T06:53:47.299Z,12.61
2024-04-01T06:57:54.848Z,12.75
2024-04-01T07:02:02.385Z,12.88
2024-04-01T07:06:13.092Z,13.01
2024-04-01T07:10:21.065Z,13.12
2024-04-01T07:14:31.187Z,13.34
2024-04-01T07:18:39.940Z,13.70
2024-04-01T07:22:48.208Z,14.05
2024-04-01T07:26:57.273Z,14.27
2024-04-01T07:31:08.630Z,14.44
2024-04-01T07:35:16.319Z,14.64
2024-04-01T07:39:24.140Z,14.84
2024-04-01T07:43:32.081Z,15.02
2024-04-01T07:47:39.293Z,15.15
2024-04-01T07:51:46.605Z,15.24
2024-04-01T07:55:56.176Z,15.33
2024-04-01T08:00:04.518Z,15.43
2024-04-01T08:04:12.026Z,15.57
2024-04-01T08:08:19.527Z,15.70
2024-04-01T08:12:27.234Z,15.77
2024-04-01T08:16:34.842Z,15.80
2024-04-01T08:20:42.991Z,15.82
2024-04-01T08:24:51.895Z,15.86
2024-04-01T08:29:01.180Z,15.89
2024-04-01T08:33:11.519Z,15.91
2024-04-01T08:37:19.099Z,15.92
2024-04-01T08:41:33.583Z,15.96
2024-04-01T08:45:44.143Z,16.01
2024-04-01T08:49:56.772Z,16.03
2024-04-01T08:54:06.043Z,16.05
2024-04-01T08:58:13.491Z,16.08
2024-04-01T09:02:22.624Z,16.09
2024-04-01T09:06:31.684Z,16.11
2024-04-01T09:10:38.806Z,16.16
2024-04-01T09:14:45.903Z,16.25
2024-04-01T09:18:54.480Z,16.38
2024-04-01T09:23:02.846Z,16.51
2024-04-01T09:27:10.135Z,16.66
2024-04-01T09:31:20.234Z,16.83
2024-04-01T09:35:29.443Z,17.03
2024-04-01T09:39:37.990Z,17.30
2024-04-01T09:43:51.628Z,17.56
2024-04-01T09:48:00.506Z,17.83
2024-04-01T09:52:09.307Z,18.07
2024-04-01T09:56:59.556Z,18.29
2024-04-01T10:01:21.781Z,18.50
2024-04-01T10:06:08.916Z,18.64
2024-04-01T10:10:49.243Z,18.79
2024-04-01T10:15:20.413Z,18.96
2024-04-01T10:20:00.733Z,19.11
2024-04-01T10:24:34.221Z,19.31
2024-04-01T10:29:12.577Z,19.51
2024-04-01T10:33:45.069Z,19.59
2024-04-01T10:38:27.771Z,19.67
2024-04-01T10:42:59.989Z,19.87
2024-04-01T10:47:30.464Z,20.04
2024-04-01T10:51:57.324Z,20.28
2024-04-01T10:56:24.524Z,20.57
2024-04-01T11:00:52.897Z,20.94
2024-04-01T11:05:30.810Z,21.33
2024-04-01T11:09:50.428Z,21.69
2024-04-01T11:13:57.748Z,21.96
2024-04-01T11:18:21.618Z,22.15
2024-04-01T11:22:46.193Z,22.31
2024-04-01T11:27:11.761Z,22.51
2024-04-01T11:31:22.241Z,22.70
2024-04-01T11:35:43.329Z,22.91
2024-04-01T11:39:53.890Z,23.12
2024-04-01T11:44:01.899Z,23.30
2024-04-01T11:48:11.422Z,23.45
2024-04-01T11:52:20.214Z,23.54
2024-04-01T11:56:42.347Z,23.60
2024-04-01T12:00:57.923Z,23.70
2024-04-01T12:05:07.761Z,23.84
2024-04-01T12:09:16.176Z,23.88
2024-04-01T12:13:30.403Z,23.91
2024-04-01T12:17:40.175Z,23.93
2024-04-01T12:21:51.838Z,23.93
2024-04-01T12:26:12.173Z,23.92
2024-04-01T12:30:22.149Z,23.90
2024-04-01T12:34:36.231Z,23.89
2024-04-01T12:38:45.527Z,23.92
2024-04-01T12:42:54.942Z,23.95
2024-04-01T12:47:02.687Z,23.96
2024-04-01T12:51:11.421Z,23.97
2024-04-01T12:55:23.910Z,23.93
2024-04-01T12:59:37.502Z,23.90
2024-04-01T13:04:11.330Z,23.86
2024-04-01T13:08:29.334Z,23.84
2024-04-01T13:12:56.591Z,23.86
2024-04-01T13:17:08.039Z,23.85
2024-04-01T13:21:20.477Z,23.81
2024-04-01T13:25:39.250Z,23.75
2024-04-01T13:29:57.645Z,23.68
2024-04-01T13:34:24.470Z,23.59
2024-04-01T13:38:57.197Z,23.46
2024-04-01T13:43:29.956Z,23.34
2024-04-01T13:47:45.199Z,23.22
2024-04-01T13:52:18.247Z,23.10
2024-04-01T13:56:59.793Z,22.97
2024-04-01T14:01:12.814Z,22.87
2024-04-01T14:05:33.248Z,22.78
2024-04-01T14:09:48.868Z,22.69
2024-04-01T14:14:03.332Z,22.60
2024-04-01T14:18:18.130Z,22.53
2024-04-01T14:22:29.167Z,22.47
2024-04-01T14:26:36.860Z,22.41
2024-04-01T14:30:44.617Z,22.35
2024-04-01T14:34:51.984Z,22.29
2024-04-01T14:39:01.310Z,22.24
2024-04-01T14:43:09.322Z,22.16
2024-04-01T14:47:17.194Z,22.10
2024-04-01T14:51:24.681Z,22.04
2024-04-01T14:55:32.274Z,21.98
2024-04-01T14:59:40.344Z,21.92
2024-04-01T15:03:48.850Z,21.86
2024-04-01T15:07:56.789Z,21.80
2024-04-01T15:12:04.819Z,21.73
2024-04-01T15:16:16.083Z,21.65
2024-04-01T15:20:24.012Z,21.61
2024-04-01T15:24:32.041Z,21.58
2024-04-01T15:28:40.352Z,21.55
2024-04-01T15:32:48.973Z,21.51
2024-04-01T15:36:56.494Z,21.47
2024-04-01T15:41:04.116Z,21.45
2024-04-01T15:45:12.846Z,21.41
2024-04-01T15:49:21.796Z,21.37
2024-04-01T15:53:31.092Z,21.33
2024-04-01T15:57:38.900Z,21.27
2024-04-01T16:01:47.084Z,21.21
2024-04-01T16:05:58.253Z,21.14
2024-04-01T16:10:06.857Z,20.78
2024-04-01T16:14:22.488Z,20.14
2024-04-01T16:18:32.476Z,19.49
2024-04-01T16:22:40.446Z,18.98
2024-04-01T16:26:50.082Z,18.52
2024-04-01T16:31:02.237Z,18.08
2024-04-01T16:35:10.147Z,17.72
2024-04-01T16:39:18.472Z,17.30
2024-04-01T16:43:28.053Z,16.97
2024-04-01T16:47:37.856Z,16.60
2024-04-01T16:51:49.477Z,16.42
2024-04-01T16:55:59.336Z,16.30
2024-04-01T17:00:09.970Z,16.19
2024-04-01T17:04:17.787Z,16.13
2024-04-01T17:08:25.280Z,16.05
2024-04-01T17:12:33.162Z,15.96
2024-04-01T17:16:41.656Z,15.96
2024-04-01T17:20:50.935Z,15.97
2024-04-01T17:25:02.082Z,15.98
2024-04-01T17:29:11.026Z,15.92
2024-04-01T17:33:20.446Z,15.88
2024-04-01T17:37:30.130Z,15.83
2024-04-01T17:41:39.097Z,15.79
2024-04-01T17:45:46.456Z,15.76
2024-04-01T17:49:56.625Z,15.75
2024-04-01T17:54:04.468Z,15.78
2024-04-01T17:58:13.369Z,15.82
2024-04-01T18:02:25.531Z,15.83
2024-04-01T18:06:38.815Z,15.82
2024-04-01T18:10:49.980Z,15.79
2024-04-01T18:14:59.933Z,15.75
2024-04-01T18:19:08.289Z,15.69
2024-04-01T18:23:17.489Z,15.57
2024-04-01T18:27:27.201Z,15.42
2024-04-01T18:31:45.858Z,15.33
2024-04-01T18:35:59.704Z,15.31
2024-04-01T18:40:25.443Z,15.30
2024-04-01T18:44:37.930Z,15.29
2024-04-01T18:48:51.514Z,15.24
2024-04-01T18:53:05.041Z,15.21
2024-04-01T18:57:18.066Z,15.12
2024-04-01T19:01:27.646Z,15.08
2024-04-01T19:05:37.428Z,15.04
2024-04-01T19:09:58.645Z,15.00
2024-04-01T19:14:22.200Z,15.01
2024-04-01T19:18:30.730Z,15.02
2024-04-01T19:22:44.967Z,15.02
2024-04-01T19:27:05.259Z,14.97
2024-04-01T19:31:19.261Z,14.91
2024-04-01T19:35:27.376Z,14.84
2024-04-01T19:39:37.322Z,14.79
2024-04-01T19:43:47.695Z,14.76
2024-04-01T19:47:57.453Z,14.76
2024-04-01T19:52:10.553Z,14.72
2024-04-01T19:56:27.310Z,14.68
2024-04-01T20:00:39.648Z,14.63
2024-04-01T20:04:50.088Z,14.55
2024-04-01T20:09:01.915Z,14.48
2024-04-01T20:13:19.795Z,14.45
2024-04-01T20:17:39.801Z,14.43
2024-04-01T20:21:47.947Z,14.38
2024-04-01T20:25:58.363Z,14.32
2024-04-01T20:30:33.952Z,14.22
2024-04-01T20:34:49.110Z,14.07
2024-04-01T20:38:56.189Z,13.96
2024-04-01T20:43:07.738Z,13.86
2024-04-01T20:47:18.564Z,13.82
2024-04-01T20:51:34.953Z,13.76
2024-04-01T20:55:52.487Z,13.67
2024-04-01T21:00:02.971Z,13.61
2024-04-01T21:04:12.154Z,13.57
2024-04-01T21:08:27.405Z,13.55
2024-04-01T21:12:35.338Z,13.54
2024-04-01T21:16:43.210Z,13.53
2024-04-01T21:20:51.914Z,13.49
2024-04-01T21:24:58.896Z,13.44
2024-04-01T21:29:06.625Z,13.41
2024-04-01T21:33:13.988Z,13.40
2024-04-01T21:37:21.713Z,13.41
2024-04-01T21:41:28.807Z,13.40
2024-04-01T21:45:36.455Z,13.38
2024-04-01T21:49:43.735Z,13.36
2024-04-01T21:53:51.422Z,13.34
2024-04-01T21:57:58.555Z,13.36
2024-04-01T22:02:07.898Z,13.38
2024-04-01T22:06:15.537Z,13.39
2024-04-01T22:10:24.812Z,13.38
2024-04-01T22:14:32.570Z,13.35
2024-04-01T22:18:40.055Z,13.34
2024-04-01T22:22:49.869Z,13.35
2024-04-01T22:26:59.405Z,13.37
2024-04-01T22:31:12.168Z,13.37
2024-04-01T22:35:20.220Z,13.35
2024-04-01T22:39:27.564Z,13.32
2024-04-01T22:43:35.934Z,13.30
2024-04-01T22:47:43.435Z,13.30
2024-04-01T22:51:51.962Z,13.30
2024-04-01T22:55:59.758Z,13.29
2024-04-01T23:00:15.961Z,13.25
2024-04-01T23:04:26.303Z,13.22
2024-04-01T23:08:34.150Z,13.20
2024-04-01T23:12:42.832Z,13.14
2024-04-01T23:16:50.116Z,13.05
2024-04-01T23:20:59.070Z,12.93
2024-04-01T23:25:06.652Z,12.76
2024-04-01T23:29:13.459Z,12.61
2024-04-01T23:33:23.168Z,12.50
2024-04-01T23:37:30.546Z,12.44
2024-04-01T23:41:38.348Z,12.40
2024-04-01T23:45:53.529Z,12.32
2024-04-01T23:50:01.147Z,12.25
2024-04-01T23:54:09.082Z,12.18
2024-04-01T23:58:17.360Z,12.09
